sensor_id;sensor_type;location;lat;lon;timestamp;temperature;humidity
16384;DHT22;8301;51.440;6.610;2023-03-01T00:00:02;-1.60;1.00
16384;DHT22;8301;51.440;6.610;2023-03-01T00:02:29;-1.60;75.80
16384;DHT22;8301;51.440;6.610;2023-03-01T00:04:56;-1.60;1.00
16384;DHT22;8301;51.440;6.610;2023-03-01T00:07:25;-1.60;1.00
16384;DHT22;8301;51.440;6.610;2023-03-01T00:09:55;-1.70;1.00
16384;DHT22;8301;51.440;6.610;2023-03-01T00:12:22;-1.70;99.90
16384;DHT22;8301;51.440;6.610;2023-03-01T00:14:48;-1.70;99.90
16384;DHT22;8301;51.440;6.610;2023-03-01T00:17:17;-1.70;99.90
16384;DHT22;8301;51.440;6.610;2023-03-01T00:19:44;-1.70;99.90
16384;DHT22;8301;51.440;6.610;2023-03-01T00:22:11;-1.50;1.00
16384;DHT22;8301;51.440;6.610;2023-03-01T00:24:38;-1.50;99.90
16384;DHT22;8301;51.440;6.610;2023-03-01T00:27:06;-1.60;1.00
16384;DHT22;8301;51.440;6.610;2023-03-01T00:29:33;-1.60;99.90
16384;DHT22;8301;51.440;6.610;2023-03-01T00:32:00;-1.70;1.00
16384;DHT22;8301;51.440;6.610;2023-03-01T00:34:27;-1.60;99.90
16384;DHT22;8301;51.440;6.610;2023-03-01T00:36:53;-1.60;1.00
16384;DHT22;8301;51.440;6.610;2023-03-01T00:39:20;-1.50;99.90
16384;DHT22;8301;51.440;6.610;2023-03-01T00:41:47;-1.60;1.00
16384;DHT22;8301;51.440;6.610;2023-03-01T00:44:14;-1.60;1.00
16384;DHT22;8301;51.440;6.610;2023-03-01T00:46:41;-1.50;1.00
16384;DHT22;8301;51.440;6.610;2023-03-01T00:49:08;-1.40;1.00
16384;DHT22;8301;51.440;6.610;2023-03-01T00:51:35;-1.50;1.00
16384;DHT22;8301;51.440;6.610;2023-03-01T00:54:02;-1.50;99.90
16384;DHT22;8301;51.440;6.610;2023-03-01T00:56:28;-1.50;1.00
16384;DHT22;8301;51.440;6.610;2023-03-01T00:58:55;-1.70;1.00
16384;DHT22;8301;51.440;6.610;2023-03-01T01:01:23;-1.70;1.00
16384;DHT22;8301;51.440;6.610;2023-03-01T01:03:58;-1.70;1.00
16384;DHT22;8301;51.440;6.610;2023-03-01T01:06:21;-1.60;99.90
16384;DHT22;8301;51.440;6.610;2023-03-01T01:08:49;-1.70;99.90
16384;DHT22;8301;51.440;6.610;2023-03-01T01:11:16;-1.70;1.00
16384;DHT22;8301;51.440;6.610;2023-03-01T01:13:43;-1.70;1.00
16384;DHT22;8301;51.440;6.610;2023-03-01T01:16:11;-1.70;1.00
16384;DHT22;8301;51.440;6.610;2023-03-01T01:18:37;-1.70;99.90
16384;DHT22;8301;51.440;6.610;2023-03-01T01:21:05;-1.70;1.00
16384;DHT22;8301;51.440;6.610;2023-03-01T01:23:32;-1.70;1.00
16384;DHT22;8301;51.440;6.610;2023-03-01T01:26:11;-1.70;1.00
16384;DHT22;8301;51.440;6.610;2023-03-01T01:28:39;-1.80;1.00
16384;DHT22;8301;51.440;6.610;2023-03-01T01:31:06;-1.80;1.00
16384;DHT22;8301;51.440;6.610;2023-03-01T01:33:33;-1.80;1.00
16384;DHT22;8301;51.440;6.610;2023-03-01T01:36:00;-1.60;99.90
16384;DHT22;8301;51.440;6.610;2023-03-01T01:38:27;-1.60;99.90
16384;DHT22;8301;51.440;6.610;2023-03-01T01:40:53;-1.60;1.00
16384;DHT22;8301;51.440;6.610;2023-03-01T01:43:22;-1.60;1.00
16384;DHT22;8301;51.440;6.610;2023-03-01T01:45:49;-1.60;1.00
16384;DHT22;8301;51.440;6.610;2023-03-01T01:48:20;-1.70;49.80
16384;DHT22;8301;51.440;6.610;2023-03-01T01:50:49;-1.70;1.00
16384;DHT22;8301;51.440;6.610;2023-03-01T01:53:16;-1.90;1.00
16384;DHT22;8301;51.440;6.610;2023-03-01T01:55:50;-2.10;1.00
16384;DHT22;8301;51.440;6.610;2023-03-01T01:58:14;-2.20;8.30
16384;DHT22;8301;51.440;6.610;2023-03-01T02:03:11;-2.50;1.00
16384;DHT22;8301;51.440;6.610;2023-03-01T02:05:43;-2.50;99.90
16384;DHT22;8301;51.440;6.610;2023-03-01T02:08:11;-2.50;99.90
16384;DHT22;8301;51.440;6.610;2023-03-01T02:10:45;-2.40;99.90
16384;DHT22;8301;51.440;6.610;2023-03-01T02:13:12;-2.30;99.90
16384;DHT22;8301;51.440;6.610;2023-03-01T02:15:40;-2.40;1.00
16384;DHT22;8301;51.440;6.610;2023-03-01T02:18:07;-2.30;80.40
16384;DHT22;8301;51.440;6.610;2023-03-01T02:20:39;-2.40;1.00
16384;DHT22;8301;51.440;6.610;2023-03-01T02:23:03;-2.50;86.90
16384;DHT22;8301;51.440;6.610;2023-03-01T02:25:33;-2.60;99.90
16384;DHT22;8301;51.440;6.610;2023-03-01T02:30:37;-2.60;1.00
16384;DHT22;8301;51.440;6.610;2023-03-01T02:33:05;-2.70;99.90
16384;DHT22;8301;51.440;6.610;2023-03-01T02:35:34;-2.80;1.00
16384;DHT22;8301;51.440;6.610;2023-03-01T02:38:01;-2.90;1.00
16384;DHT22;8301;51.440;6.610;2023-03-01T02:40:28;-2.90;1.00
16384;DHT22;8301;51.440;6.610;2023-03-01T02:42:56;-2.90;1.00
16384;DHT22;8301;51.440;6.610;2023-03-01T02:45:24;-3.00;1.00
16384;DHT22;8301;51.440;6.610;2023-03-01T02:47:53;-3.00;1.00
16384;DHT22;8301;51.440;6.610;2023-03-01T02:50:22;-3.10;1.00
16384;DHT22;8301;51.440;6.610;2023-03-01T02:55:33;-3.00;1.00
16384;DHT22;8301;51.440;6.610;2023-03-01T02:57:59;-3.10;1.00
16384;DHT22;8301;51.440;6.610;2023-03-01T03:00:36;-3.10;1.00
16384;DHT22;8301;51.440;6.610;2023-03-01T03:02:59;-3.10;1.00
16384;DHT22;8301;51.440;6.610;2023-03-01T03:05:27;-2.80;85.80
16384;DHT22;8301;51.440;6.610;2023-03-01T03:07:56;-2.80;1.00
16384;DHT22;8301;51.440;6.610;2023-03-01T03:10:31;-2.50;15.20
16384;DHT22;8301;51.440;6.610;2023-03-01T03:12:57;-2.40;1.00
16384;DHT22;8301;51.440;6.610;2023-03-01T03:15:24;-2.30;1.00
16384;DHT22;8301;51.440;6.610;2023-03-01T03:17:52;-2.30;1.00
16384;DHT22;8301;51.440;6.610;2023-03-01T03:20:20;-2.10;1.00
16384;DHT22;8301;51.440;6.610;2023-03-01T03:22:48;-1.90;1.00
16384;DHT22;8301;51.440;6.610;2023-03-01T03:25:21;-1.90;99.90
16384;DHT22;8301;51.440;6.610;2023-03-01T03:27:49;-1.90;99.90
16384;DHT22;8301;51.440;6.610;2023-03-01T03:30:18;-1.80;99.90
16384;DHT22;8301;51.440;6.610;2023-03-01T03:32:53;-1.80;99.90
16384;DHT22;8301;51.440;6.610;2023-03-01T03:35:38;-1.80;1.00
16384;DHT22;8301;51.440;6.610;2023-03-01T03:38:04;-1.70;1.00
16384;DHT22;8301;51.440;6.610;2023-03-01T03:40:36;-2.00;38.70
16384;DHT22;8301;51.440;6.610;2023-03-01T03:43:04;-2.20;1.00
16384;DHT22;8301;51.440;6.610;2023-03-01T03:45:31;-2.20;1.00
16384;DHT22;8301;51.440;6.610;2023-03-01T03:47:59;-2.20;1.00
16384;DHT22;8301;51.440;6.610;2023-03-01T03:50:26;-2.20;1.00
16384;DHT22;8301;51.440;6.610;2023-03-01T03:52:53;-2.10;1.00
16384;DHT22;8301;51.440;6.610;2023-03-01T03:55:19;-2.10;1.00
16384;DHT22;8301;51.440;6.610;2023-03-01T03:57:47;-2.20;1.00
16384;DHT22;8301;51.440;6.610;2023-03-01T04:00:16;-2.20;1.00
16384;DHT22;8301;51.440;6.610;2023-03-01T04:02:50;-2.20;1.00
16384;DHT22;8301;51.440;6.610;2023-03-01T04:05:18;-2.20;99.90
16384;DHT22;8301;51.440;6.610;2023-03-01T04:07:47;-2.20;1.00
16384;DHT22;8301;51.440;6.610;2023-03-01T04:10:17;-2.40;99.90
16384;DHT22;8301;51.440;6.610;2023-03-01T04:12:44;-2.70;1.00
16384;DHT22;8301;51.440;6.610;2023-03-01T04:15:11;-2.90;99.90
16384;DHT22;8301;51.440;6.610;2023-03-01T04:17:45;-3.00;99.90
16384;DHT22;8301;51.440;6.610;2023-03-01T04:20:14;-3.10;1.00
16384;DHT22;8301;51.440;6.610;2023-03-01T04:22:43;-3.20;1.00
16384;DHT22;8301;51.440;6.610;2023-03-01T04:25:13;-3.10;1.00
16384;DHT22;8301;51.440;6.610;2023-03-01T04:27:45;-3.10;1.00
16384;DHT22;8301;51.440;6.610;2023-03-01T04:30:12;-3.10;1.00
16384;DHT22;8301;51.440;6.610;2023-03-01T04:32:44;-3.10;1.00
16384;DHT22;8301;51.440;6.610;2023-03-01T04:35:11;-3.00;1.00
16384;DHT22;8301;51.440;6.610;2023-03-01T04:37:38;-3.00;1.00
16384;DHT22;8301;51.440;6.610;2023-03-01T04:40:16;-2.90;1.00
16384;DHT22;8301;51.440;6.610;2023-03-01T04:42:43;-2.90;1.00
16384;DHT22;8301;51.440;6.610;2023-03-01T04:45:09;-2.70;1.00
16384;DHT22;8301;51.440;6.610;2023-03-01T04:47:40;-2.70;1.00
16384;DHT22;8301;51.440;6.610;2023-03-01T04:50:08;-2.60;1.00
16384;DHT22;8301;51.440;6.610;2023-03-01T04:52:35;-2.60;1.00
16384;DHT22;8301;51.440;6.610;2023-03-01T04:55:02;-2.50;1.00
16384;DHT22;8301;51.440;6.610;2023-03-01T04:57:30;-2.50;99.90
16384;DHT22;8301;51.440;6.610;2023-03-01T04:59:57;-2.40;99.90
16384;DHT22;8301;51.440;6.610;2023-03-01T05:02:23;-2.40;99.90
16384;DHT22;8301;51.440;6.610;2023-03-01T05:04:50;-2.30;99.90
16384;DHT22;8301;51.440;6.610;2023-03-01T05:07:17;-2.30;99.90
16384;DHT22;8301;51.440;6.610;2023-03-01T05:09:52;-2.40;9.00
16384;DHT22;8301;51.440;6.610;2023-03-01T05:12:20;-2.40;1.00
16384;DHT22;8301;51.440;6.610;2023-03-01T05:14:47;-2.40;1.00
16384;DHT22;8301;51.440;6.610;2023-03-01T05:17:13;-2.40;1.00
16384;DHT22;8301;51.440;6.610;2023-03-01T05:19:40;-2.40;1.00
16384;DHT22;8301;51.440;6.610;2023-03-01T05:22:08;-2.40;1.00
16384;DHT22;8301;51.440;6.610;2023-03-01T05:24:35;-2.50;1.00
16384;DHT22;8301;51.440;6.610;2023-03-01T05:27:02;-2.50;76.90
16384;DHT22;8301;51.440;6.610;2023-03-01T05:29:30;-2.50;99.90
16384;DHT22;8301;51.440;6.610;2023-03-01T05:31:57;-2.60;99.90
16384;DHT22;8301;51.440;6.610;2023-03-01T05:34:25;-2.60;99.90
16384;DHT22;8301;51.440;6.610;2023-03-01T05:36:54;-2.70;99.90
16384;DHT22;8301;51.440;6.610;2023-03-01T05:39:21;-2.70;99.90
16384;DHT22;8301;51.440;6.610;2023-03-01T05:41:52;-2.80;99.90
16384;DHT22;8301;51.440;6.610;2023-03-01T05:44:17;-2.80;1.00
16384;DHT22;8301;51.440;6.610;2023-03-01T05:46:44;-2.80;1.00
16384;DHT22;8301;51.440;6.610;2023-03-01T05:49:11;-2.80;1.00
16384;DHT22;8301;51.440;6.610;2023-03-01T05:51:40;-2.80;1.00
16384;DHT22;8301;51.440;6.610;2023-03-01T05:54:07;-2.90;1.00
16384;DHT22;8301;51.440;6.610;2023-03-01T05:56:34;-2.90;1.00
16384;DHT22;8301;51.440;6.610;2023-03-01T05:59:01;-2.90;1.00
16384;DHT22;8301;51.440;6.610;2023-03-01T06:01:29;-2.90;1.00
16384;DHT22;8301;51.440;6.610;2023-03-01T06:03:55;-2.90;1.00
16384;DHT22;8301;51.440;6.610;2023-03-01T06:06:22;-2.90;1.00
16384;DHT22;8301;51.440;6.610;2023-03-01T06:08:50;-3.00;1.00
16384;DHT22;8301;51.440;6.610;2023-03-01T06:11:21;-2.90;1.00
16384;DHT22;8301;51.440;6.610;2023-03-01T06:13:47;-3.00;1.00
16384;DHT22;8301;51.440;6.610;2023-03-01T06:16:14;-3.00;1.00
16384;DHT22;8301;51.440;6.610;2023-03-01T06:18:42;-2.90;94.00
16384;DHT22;8301;51.440;6.610;2023-03-01T06:21:09;-2.80;99.90
16384;DHT22;8301;51.440;6.610;2023-03-01T06:23:35;-2.60;53.80
16384;DHT22;8301;51.440;6.610;2023-03-01T06:26:10;-2.50;1.00
16384;DHT22;8301;51.440;6.610;2023-03-01T06:28:34;-2.50;1.00
16384;DHT22;8301;51.440;6.610;2023-03-01T06:31:01;-2.40;1.00
16384;DHT22;8301;51.440;6.610;2023-03-01T06:33:29;-2.40;1.00
16384;DHT22;8301;51.440;6.610;2023-03-01T06:35:56;-2.30;1.00
16384;DHT22;8301;51.440;6.610;2023-03-01T06:38:24;-2.30;99.90
16384;DHT22;8301;51.440;6.610;2023-03-01T06:40:51;-2.20;99.90
16384;DHT22;8301;51.440;6.610;2023-03-01T06:43:19;-2.10;99.90
16384;DHT22;8301;51.440;6.610;2023-03-01T06:45:46;-2.10;1.00
16384;DHT22;8301;51.440;6.610;2023-03-01T06:48:13;-2.10;1.00
16384;DHT22;8301;51.440;6.610;2023-03-01T06:50:40;-2.00;99.90
16384;DHT22;8301;51.440;6.610;2023-03-01T06:53:07;-2.00;1.00
16384;DHT22;8301;51.440;6.610;2023-03-01T06:55:33;-2.00;1.00
16384;DHT22;8301;51.440;6.610;2023-03-01T06:58:02;-1.90;1.00
16384;DHT22;8301;51.440;6.610;2023-03-01T07:00:29;-1.90;99.90
16384;DHT22;8301;51.440;6.610;2023-03-01T07:02:58;-1.80;1.00
16384;DHT22;8301;51.440;6.610;2023-03-01T07:07:54;-1.70;99.90
16384;DHT22;8301;51.440;6.610;2023-03-01T07:10:22;-1.70;1.00
16384;DHT22;8301;51.440;6.610;2023-03-01T07:12:49;-1.60;1.00
16384;DHT22;8301;51.440;6.610;2023-03-01T07:15:16;-1.60;99.90
16384;DHT22;8301;51.440;6.610;2023-03-01T07:20:38;-1.30;99.90
16384;DHT22;8301;51.440;6.610;2023-03-01T07:23:05;-1.20;1.00
16384;DHT22;8301;51.440;6.610;2023-03-01T07:25:32;-1.00;1.00
16384;DHT22;8301;51.440;6.610;2023-03-01T07:27:59;-0.80;99.90
16384;DHT22;8301;51.440;6.610;2023-03-01T07:30:25;-0.50;1.00
16384;DHT22;8301;51.440;6.610;2023-03-01T07:32:54;-0.30;1.00
16384;DHT22;8301;51.440;6.610;2023-03-01T07:35:21;0.00;99.90
16384;DHT22;8301;51.440;6.610;2023-03-01T07:38:01;0.50;99.90
16384;DHT22;8301;51.440;6.610;2023-03-01T07:40:27;0.60;1.00
16384;DHT22;8301;51.440;6.610;2023-03-01T07:42:59;0.70;1.00
16384;DHT22;8301;51.440;6.610;2023-03-01T07:45:24;0.90;1.00
16384;DHT22;8301;51.440;6.610;2023-03-01T07:47:51;1.20;1.00
16384;DHT22;8301;51.440;6.610;2023-03-01T07:50:18;1.10;1.00
16384;DHT22;8301;51.440;6.610;2023-03-01T07:52:53;1.40;1.00
16384;DHT22;8301;51.440;6.610;2023-03-01T07:55:22;1.60;1.00
16384;DHT22;8301;51.440;6.610;2023-03-01T07:57:48;1.40;1.00
16384;DHT22;8301;51.440;6.610;2023-03-01T08:00:15;1.20;1.00
16384;DHT22;8301;51.440;6.610;2023-03-01T08:02:42;0.90;1.00
16384;DHT22;8301;51.440;6.610;2023-03-01T08:07:40;0.70;1.00
16384;DHT22;8301;51.440;6.610;2023-03-01T08:10:09;0.70;1.00
16384;DHT22;8301;51.440;6.610;2023-03-01T08:12:44;0.80;8.80
16384;DHT22;8301;51.440;6.610;2023-03-01T08:15:22;0.80;1.00
16384;DHT22;8301;51.440;6.610;2023-03-01T08:17:49;0.70;15.70
16384;DHT22;8301;51.440;6.610;2023-03-01T08:20:16;0.80;1.00
16384;DHT22;8301;51.440;6.610;2023-03-01T08:22:43;0.80;1.00
16384;DHT22;8301;51.440;6.610;2023-03-01T08:25:10;0.90;1.00
16384;DHT22;8301;51.440;6.610;2023-03-01T08:27:37;1.00;1.00
16384;DHT22;8301;51.440;6.610;2023-03-01T08:30:04;1.20;1.00
16384;DHT22;8301;51.440;6.610;2023-03-01T08:32:34;1.60;1.00
16384;DHT22;8301;51.440;6.610;2023-03-01T08:35:07;1.90;1.00
16384;DHT22;8301;51.440;6.610;2023-03-01T08:37:34;2.00;1.00
16384;DHT22;8301;51.440;6.610;2023-03-01T08:40:00;1.90;1.00
16384;DHT22;8301;51.440;6.610;2023-03-01T08:42:29;1.80;1.00
16384;DHT22;8301;51.440;6.610;2023-03-01T08:44:56;1.90;1.00
16384;DHT22;8301;51.440;6.610;2023-03-01T08:47:22;1.90;1.00
16384;DHT22;8301;51.440;6.610;2023-03-01T08:49:50;2.00;1.00
16384;DHT22;8301;51.440;6.610;2023-03-01T08:52:19;2.40;1.00
16384;DHT22;8301;51.440;6.610;2023-03-01T08:54:48;3.00;99.90
16384;DHT22;8301;51.440;6.610;2023-03-01T08:57:15;3.40;99.90
16384;DHT22;8301;51.440;6.610;2023-03-01T08:59:42;3.60;99.90
16384;DHT22;8301;51.440;6.610;2023-03-01T09:02:11;4.10;99.90
16384;DHT22;8301;51.440;6.610;2023-03-01T09:04:38;4.60;99.90
16384;DHT22;8301;51.440;6.610;2023-03-01T09:07:05;4.80;99.90
16384;DHT22;8301;51.440;6.610;2023-03-01T09:09:32;5.30;87.20
16384;DHT22;8301;51.440;6.610;2023-03-01T09:12:01;5.00;58.30
16384;DHT22;8301;51.440;6.610;2023-03-01T09:14:28;5.20;50.40
16384;DHT22;8301;51.440;6.610;2023-03-01T09:16:55;4.60;71.10
16384;DHT22;8301;51.440;6.610;2023-03-01T09:19:23;5.20;11.80
16384;DHT22;8301;51.440;6.610;2023-03-01T09:21:53;5.30;2.30
16384;DHT22;8301;51.440;6.610;2023-03-01T09:24:22;5.70;2.80
16384;DHT22;8301;51.440;6.610;2023-03-01T09:26:49;4.60;27.10
16384;DHT22;8301;51.440;6.610;2023-03-01T09:29:17;5.10;1.00
16384;DHT22;8301;51.440;6.610;2023-03-01T09:31:44;5.80;1.00
16384;DHT22;8301;51.440;6.610;2023-03-01T09:34:11;6.10;1.00
16384;DHT22;8301;51.440;6.610;2023-03-01T09:36:40;6.60;1.00
16384;DHT22;8301;51.440;6.610;2023-03-01T09:39:07;6.50;1.00
16384;DHT22;8301;51.440;6.610;2023-03-01T09:41:46;6.40;1.00
16384;DHT22;8301;51.440;6.610;2023-03-01T09:46:50;5.60;1.00
16384;DHT22;8301;51.440;6.610;2023-03-01T09:49:23;5.50;1.00
16384;DHT22;8301;51.440;6.610;2023-03-01T09:54:35;5.30;1.00
16384;DHT22;8301;51.440;6.610;2023-03-01T09:59:51;5.10;1.00
16384;DHT22;8301;51.440;6.610;2023-03-01T10:04:52;4.90;1.00
16384;DHT22;8301;51.440;6.610;2023-03-01T10:09:48;4.70;1.00
16384;DHT22;8301;51.440;6.610;2023-03-01T10:12:18;4.30;1.00
16384;DHT22;8301;51.440;6.610;2023-03-01T10:15:04;4.50;1.00
16384;DHT22;8301;51.440;6.610;2023-03-01T10:20:19;4.80;1.00
16384;DHT22;8301;51.440;6.610;2023-03-01T10:22:46;4.60;1.00
16384;DHT22;8301;51.440;6.610;2023-03-01T10:25:14;4.80;1.00
16384;DHT22;8301;51.440;6.610;2023-03-01T10:30:16;4.70;1.00
16384;DHT22;8301;51.440;6.610;2023-03-01T10:32:42;4.50;1.00
16384;DHT22;8301;51.440;6.610;2023-03-01T10:35:17;4.70;1.00
16384;DHT22;8301;51.440;6.610;2023-03-01T10:40:33;4.70;1.00
16384;DHT22;8301;51.440;6.610;2023-03-01T10:43:01;4.80;1.00
16384;DHT22;8301;51.440;6.610;2023-03-01T10:50:35;4.50;1.00
16384;DHT22;8301;51.440;6.610;2023-03-01T10:53:18;4.40;1.00
16384;DHT22;8301;51.440;6.610;2023-03-01T10:55:42;4.60;1.00
16384;DHT22;8301;51.440;6.610;2023-03-01T10:58:20;4.70;1.00
16384;DHT22;8301;51.440;6.610;2023-03-01T11:00:49;4.70;1.00
16384;DHT22;8301;51.440;6.610;2023-03-01T11:03:28;4.80;1.00
16384;DHT22;8301;51.440;6.610;2023-03-01T11:06:03;4.80;1.00
16384;DHT22;8301;51.440;6.610;2023-03-01T11:08:31;5.20;1.00
16384;DHT22;8301;51.440;6.610;2023-03-01T11:11:06;5.10;1.00
16384;DHT22;8301;51.440;6.610;2023-03-01T11:13:32;5.20;1.00
16384;DHT22;8301;51.440;6.610;2023-03-01T11:16:00;5.10;1.00
16384;DHT22;8301;51.440;6.610;2023-03-01T11:18:29;5.30;1.00
16384;DHT22;8301;51.440;6.610;2023-03-01T11:20:57;5.50;1.00
16384;DHT22;8301;51.440;6.610;2023-03-01T11:23:26;5.70;1.00
16384;DHT22;8301;51.440;6.610;2023-03-01T11:25:55;5.70;1.00
16384;DHT22;8301;51.440;6.610;2023-03-01T11:28:23;5.50;1.00
16384;DHT22;8301;51.440;6.610;2023-03-01T11:38:34;5.70;1.00
16384;DHT22;8301;51.440;6.610;2023-03-01T11:57:00;6.20;1.00
16384;DHT22;8301;51.440;6.610;2023-03-01T11:59:33;6.30;1.00
16384;DHT22;8301;51.440;6.610;2023-03-01T12:12:48;6.60;1.00
16384;DHT22;8301;51.440;6.610;2023-03-01T12:15:33;6.40;1.00
16384;DHT22;8301;51.440;6.610;2023-03-01T12:18:05;6.30;1.00
16384;DHT22;8301;51.440;6.610;2023-03-01T12:23:13;6.30;1.00
16384;DHT22;8301;51.440;6.610;2023-03-01T12:33:50;6.50;1.00
16384;DHT22;8301;51.440;6.610;2023-03-01T12:36:35;6.60;1.00
16384;DHT22;8301;51.440;6.610;2023-03-01T12:41:31;7.10;1.00
16384;DHT22;8301;51.440;6.610;2023-03-01T12:44:20;7.20;1.00
16384;DHT22;8301;51.440;6.610;2023-03-01T12:49:28;6.90;1.00
16384;DHT22;8301;51.440;6.610;2023-03-01T12:54:34;6.80;1.00
16384;DHT22;8301;51.440;6.610;2023-03-01T12:57:09;6.90;1.00
16384;DHT22;8301;51.440;6.610;2023-03-01T12:59:37;7.00;1.00
16384;DHT22;8301;51.440;6.610;2023-03-01T13:05:06;7.10;1.00
16384;DHT22;8301;51.440;6.610;2023-03-01T13:07:37;7.30;1.00
16384;DHT22;8301;51.440;6.610;2023-03-01T13:12:49;7.20;1.00
16384;DHT22;8301;51.440;6.610;2023-03-01T13:18:00;7.20;1.00
16384;DHT22;8301;51.440;6.610;2023-03-01T13:20:32;7.10;1.00
16384;DHT22;8301;51.440;6.610;2023-03-01T13:31:00;7.00;1.00
16384;DHT22;8301;51.440;6.610;2023-03-01T13:35:57;7.00;1.00
16384;DHT22;8301;51.440;6.610;2023-03-01T13:41:16;7.00;1.00
16384;DHT22;8301;51.440;6.610;2023-03-01T13:46:25;6.90;1.00
16384;DHT22;8301;51.440;6.610;2023-03-01T13:48:53;7.10;1.00
16384;DHT22;8301;51.440;6.610;2023-03-01T13:51:24;7.20;1.00
16384;DHT22;8301;51.440;6.610;2023-03-01T13:53:51;7.20;1.00
16384;DHT22;8301;51.440;6.610;2023-03-01T13:56:20;7.50;1.00
16384;DHT22;8301;51.440;6.610;2023-03-01T13:58:55;7.30;1.00
16384;DHT22;8301;51.440;6.610;2023-03-01T14:03:53;7.50;1.00
16384;DHT22;8301;51.440;6.610;2023-03-01T14:06:22;7.60;1.00
16384;DHT22;8301;51.440;6.610;2023-03-01T14:08:50;7.50;1.00
16384;DHT22;8301;51.440;6.610;2023-03-01T14:11:23;7.30;1.00
16384;DHT22;8301;51.440;6.610;2023-03-01T14:13:58;7.40;1.00
16384;DHT22;8301;51.440;6.610;2023-03-01T14:19:10;7.20;1.00
16384;DHT22;8301;51.440;6.610;2023-03-01T14:21:35;7.30;1.00
16384;DHT22;8301;51.440;6.610;2023-03-01T14:24:02;7.50;1.00
16384;DHT22;8301;51.440;6.610;2023-03-01T14:26:29;7.30;1.00
16384;DHT22;8301;51.440;6.610;2023-03-01T14:28:57;7.50;1.00
16384;DHT22;8301;51.440;6.610;2023-03-01T14:31:39;7.40;1.00
16384;DHT22;8301;51.440;6.610;2023-03-01T14:34:16;7.30;1.00
16384;DHT22;8301;51.440;6.610;2023-03-01T14:36:36;7.30;1.00
16384;DHT22;8301;51.440;6.610;2023-03-01T14:39:15;7.30;1.00
16384;DHT22;8301;51.440;6.610;2023-03-01T14:41:35;7.40;1.00
16384;DHT22;8301;51.440;6.610;2023-03-01T14:44:05;7.30;1.00
16384;DHT22;8301;51.440;6.610;2023-03-01T14:46:35;7.40;1.00
16384;DHT22;8301;51.440;6.610;2023-03-01T14:49:04;7.60;1.00
16384;DHT22;8301;51.440;6.610;2023-03-01T14:51:35;7.40;1.00
16384;DHT22;8301;51.440;6.610;2023-03-01T14:53:59;7.30;1.00
16384;DHT22;8301;51.440;6.610;2023-03-01T14:56:27;7.10;1.00
16384;DHT22;8301;51.440;6.610;2023-03-01T14:59:02;7.00;1.00
16384;DHT22;8301;51.440;6.610;2023-03-01T15:01:28;7.10;1.00
16384;DHT22;8301;51.440;6.610;2023-03-01T15:03:56;7.00;1.00
16384;DHT22;8301;51.440;6.610;2023-03-01T15:06:23;7.10;1.00
16384;DHT22;8301;51.440;6.610;2023-03-01T15:08:52;7.20;1.00
16384;DHT22;8301;51.440;6.610;2023-03-01T15:11:23;7.10;1.00
16384;DHT22;8301;51.440;6.610;2023-03-01T15:13:51;7.20;1.00
16384;DHT22;8301;51.440;6.610;2023-03-01T15:16:18;7.20;1.00
16384;DHT22;8301;51.440;6.610;2023-03-01T15:18:47;7.10;1.00
16384;DHT22;8301;51.440;6.610;2023-03-01T15:21:16;7.10;1.00
16384;DHT22;8301;51.440;6.610;2023-03-01T15:23:48;7.10;1.00
16384;DHT22;8301;51.440;6.610;2023-03-01T15:26:21;7.10;1.00
16384;DHT22;8301;51.440;6.610;2023-03-01T15:28:49;6.90;1.00
16384;DHT22;8301;51.440;6.610;2023-03-01T15:33:44;7.00;1.00
16384;DHT22;8301;51.440;6.610;2023-03-01T15:38:59;7.10;1.00
16384;DHT22;8301;51.440;6.610;2023-03-01T15:41:30;7.00;1.00
16384;DHT22;8301;51.440;6.610;2023-03-01T15:46:32;6.70;1.00
16384;DHT22;8301;51.440;6.610;2023-03-01T15:49:00;6.60;1.00
16384;DHT22;8301;51.440;6.610;2023-03-01T15:51:31;6.60;1.00
16384;DHT22;8301;51.440;6.610;2023-03-01T15:53:59;6.60;1.00
16384;DHT22;8301;51.440;6.610;2023-03-01T15:56:27;6.50;1.00
16384;DHT22;8301;51.440;6.610;2023-03-01T15:59:01;6.60;1.00
16384;DHT22;8301;51.440;6.610;2023-03-01T16:01:25;6.50;1.00
16384;DHT22;8301;51.440;6.610;2023-03-01T16:03:53;6.50;1.00
16384;DHT22;8301;51.440;6.610;2023-03-01T16:06:20;6.30;1.00
16384;DHT22;8301;51.440;6.610;2023-03-01T16:08:47;6.40;1.00
16384;DHT22;8301;51.440;6.610;2023-03-01T16:11:16;6.30;1.00
16384;DHT22;8301;51.440;6.610;2023-03-01T16:13:45;6.30;1.00
16384;DHT22;8301;51.440;6.610;2023-03-01T16:16:13;6.30;1.00
16384;DHT22;8301;51.440;6.610;2023-03-01T16:18:42;6.20;1.00
16384;DHT22;8301;51.440;6.610;2023-03-01T16:21:13;6.10;1.00
16384;DHT22;8301;51.440;6.610;2023-03-01T16:23:42;6.20;1.00
16384;DHT22;8301;51.440;6.610;2023-03-01T16:26:09;6.10;1.00
16384;DHT22;8301;51.440;6.610;2023-03-01T16:28:36;6.10;1.00
16384;DHT22;8301;51.440;6.610;2023-03-01T16:31:03;6.00;1.00
16384;DHT22;8301;51.440;6.610;2023-03-01T16:33:31;6.00;1.00
16384;DHT22;8301;51.440;6.610;2023-03-01T16:36:06;5.90;1.00
16384;DHT22;8301;51.440;6.610;2023-03-01T16:38:28;5.90;1.00
16384;DHT22;8301;51.440;6.610;2023-03-01T16:40:55;5.90;1.00
16384;DHT22;8301;51.440;6.610;2023-03-01T16:43:21;5.90;1.00
16384;DHT22;8301;51.440;6.610;2023-03-01T16:45:48;5.80;1.00
16384;DHT22;8301;51.440;6.610;2023-03-01T16:48:15;5.70;1.00
16384;DHT22;8301;51.440;6.610;2023-03-01T16:50:42;5.70;1.00
16384;DHT22;8301;51.440;6.610;2023-03-01T16:53:10;5.70;1.00
16384;DHT22;8301;51.440;6.610;2023-03-01T16:55:37;5.60;1.00
16384;DHT22;8301;51.440;6.610;2023-03-01T16:58:05;5.60;1.00
16384;DHT22;8301;51.440;6.610;2023-03-01T17:00:45;5.50;1.00
16384;DHT22;8301;51.440;6.610;2023-03-01T17:03:12;5.50;1.00
16384;DHT22;8301;51.440;6.610;2023-03-01T17:05:43;5.50;1.00
16384;DHT22;8301;51.440;6.610;2023-03-01T17:08:10;5.50;1.00
16384;DHT22;8301;51.440;6.610;2023-03-01T17:10:37;5.40;1.00
16384;DHT22;8301;51.440;6.610;2023-03-01T17:13:04;5.40;1.00
16384;DHT22;8301;51.440;6.610;2023-03-01T17:15:42;5.30;1.00
16384;DHT22;8301;51.440;6.610;2023-03-01T17:18:09;5.30;1.00
16384;DHT22;8301;51.440;6.610;2023-03-01T17:20:36;5.20;1.00
16384;DHT22;8301;51.440;6.610;2023-03-01T17:23:03;5.10;1.00
16384;DHT22;8301;51.440;6.610;2023-03-01T17:25:32;5.10;1.00
16384;DHT22;8301;51.440;6.610;2023-03-01T17:27:58;5.00;1.00
16384;DHT22;8301;51.440;6.610;2023-03-01T17:30:25;5.10;1.00
16384;DHT22;8301;51.440;6.610;2023-03-01T17:32:52;5.10;1.00
16384;DHT22;8301;51.440;6.610;2023-03-01T17:35:20;4.90;1.00
16384;DHT22;8301;51.440;6.610;2023-03-01T17:37:47;4.90;1.00
16384;DHT22;8301;51.440;6.610;2023-03-01T17:40:14;5.00;1.00
16384;DHT22;8301;51.440;6.610;2023-03-01T17:42:41;4.80;1.00
16384;DHT22;8301;51.440;6.610;2023-03-01T17:45:08;4.90;1.00
16384;DHT22;8301;51.440;6.610;2023-03-01T17:47:35;4.90;1.00
16384;DHT22;8301;51.440;6.610;2023-03-01T17:50:02;4.80;1.00
16384;DHT22;8301;51.440;6.610;2023-03-01T17:52:30;4.80;1.00
16384;DHT22;8301;51.440;6.610;2023-03-01T17:54:58;4.90;1.00
16384;DHT22;8301;51.440;6.610;2023-03-01T17:57:25;4.90;1.00
16384;DHT22;8301;51.440;6.610;2023-03-01T17:59:52;4.80;1.00
16384;DHT22;8301;51.440;6.610;2023-03-01T18:02:19;4.80;1.00
16384;DHT22;8301;51.440;6.610;2023-03-01T18:04:45;4.90;1.00
16384;DHT22;8301;51.440;6.610;2023-03-01T18:07:13;4.80;1.00
16384;DHT22;8301;51.440;6.610;2023-03-01T18:09:40;4.70;1.00
16384;DHT22;8301;51.440;6.610;2023-03-01T18:12:07;4.60;1.00
16384;DHT22;8301;51.440;6.610;2023-03-01T18:14:35;4.60;1.00
16384;DHT22;8301;51.440;6.610;2023-03-01T18:17:07;4.50;1.00
16384;DHT22;8301;51.440;6.610;2023-03-01T18:19:37;4.50;1.00
16384;DHT22;8301;51.440;6.610;2023-03-01T18:22:06;4.60;1.00
16384;DHT22;8301;51.440;6.610;2023-03-01T18:24:34;4.50;1.00
16384;DHT22;8301;51.440;6.610;2023-03-01T18:27:01;4.60;1.00